Aviation Digital Data Service (ADDS)

Output produced by METARs form (1739 UTC 27 May 2017)
found at http://www.aviationweather.gov/adds/metars/
 
DGAA 271700Z 18009KT 9999 FEW016 FEW030CB 29/25 Q1011 NOSIG
TAF DGAA 271635Z 2718/2824 27010KT 9999 FEW015 
     TEMPO2720/2800 TS BKN015 FEW030CB 
     BECMG 2800/2802 CAVOK FM 281100 18015KT 9999 FEW025 
     PROB40 
     TEMPO 2815/2820 18010G25KT 5000 TSRA BKN012 OVC025 FEW030CB
       
TAF DGSI 270500Z 2706/2806 23007KT 9999 SCT012 
     TEMPO 2710/2714 14010KT 
     PROB30 
     TEMPO 2715/2719 4000 TSRA BKN008 FEW030CB 
     TEMPO 2720/2800 CAVOK